createdAt,value
2023-11-30T00:02:08.893Z,1.40
2023-11-30T00:04:35.591Z,1.40
2023-11-30T00:07:02.389Z,1.50
2023-11-30T00:09:38.597Z,1.50
2023-11-30T00:12:06.137Z,1.50
2023-11-30T00:14:35.801Z,1.50
2023-11-30T00:17:02.607Z,1.50
2023-11-30T00:19:30.574Z,1.50
2023-11-30T00:24:38.613Z,1.50
2023-11-30T00:27:05.474Z,1.40
2023-11-30T00:29:32.577Z,1.40
2023-11-30T00:31:59.467Z,1.40
2023-11-30T00:34:26.339Z,1.40
2023-11-30T00:36:53.176Z,1.40
2023-11-30T00:39:20.684Z,1.40
2023-11-30T00:41:47.737Z,1.40
2023-11-30T00:44:14.536Z,1.40
2023-11-30T00:46:41.563Z,1.40
2023-11-30T00:49:26.376Z,1.40
2023-11-30T00:51:53.501Z,1.30
2023-11-30T00:54:22.993Z,1.30
2023-11-30T00:56:58.713Z,1.30
2023-11-30T00:59:25.662Z,1.20
2023-11-30T01:01:52.699Z,1.20
2023-11-30T01:04:19.869Z,1.10
2023-11-30T01:06:46.787Z,1.10
2023-11-30T01:09:13.595Z,1.10
2023-11-30T01:11:44.116Z,1.10
2023-11-30T01:14:11.302Z,1.10
2023-11-30T01:16:44.940Z,1.20
2023-11-30T01:19:12.056Z,1.20
2023-11-30T01:21:39.033Z,1.20
2023-11-30T01:24:05.969Z,1.10
2023-11-30T01:26:33.107Z,1.20
2023-11-30T01:28:59.791Z,1.20
2023-11-30T01:34:13.260Z,1.20
2023-11-30T01:36:40.211Z,1.30
2023-11-30T01:39:07.221Z,1.30
2023-11-30T01:41:36.404Z,1.30
2023-11-30T01:44:09.856Z,1.30
2023-11-30T01:46:42.367Z,1.20
2023-11-30T01:49:11.440Z,1.20
2023-11-30T01:51:48.934Z,1.20
2023-11-30T01:54:21.745Z,1.20
2023-11-30T01:57:03.745Z,1.20
2023-11-30T01:59:31.395Z,1.20
2023-11-30T02:01:59.003Z,1.10
2023-11-30T02:04:31.176Z,1.10
2023-11-30T02:06:58.312Z,1.00
2023-11-30T02:09:25.040Z,1.00
2023-11-30T02:11:54.848Z,1.00
2023-11-30T02:14:25.720Z,1.00
2023-11-30T02:17:00.136Z,1.00
2023-11-30T02:19:28.404Z,1.00
2023-11-30T02:21:56.553Z,1.00
2023-11-30T02:24:23.436Z,0.90
2023-11-30T02:26:52.837Z,0.90
2023-11-30T02:32:10.704Z,0.90
2023-11-30T02:34:37.508Z,1.00
2023-11-30T02:37:04.395Z,1.00
2023-11-30T02:39:31.370Z,1.00
2023-11-30T02:41:58.350Z,1.00
2023-11-30T02:44:30.010Z,1.10
2023-11-30T02:46:56.758Z,1.10
2023-11-30T02:49:23.415Z,1.10
2023-11-30T02:51:50.168Z,1.10
2023-11-30T02:54:16.876Z,1.10
2023-11-30T02:56:43.564Z,1.10
2023-11-30T02:59:10.193Z,1.10
2023-11-30T03:01:44.273Z,1.00
2023-11-30T03:04:11.145Z,1.00
2023-11-30T03:06:43.205Z,1.00
2023-11-30T03:09:10.164Z,1.00
2023-11-30T03:11:36.798Z,1.00
2023-11-30T03:14:03.647Z,1.10
2023-11-30T03:16:33.639Z,1.10
2023-11-30T03:19:16.403Z,1.00
2023-11-30T03:21:44.523Z,1.00
2023-11-30T03:24:11.657Z,1.00
2023-11-30T03:26:38.548Z,0.90
2023-11-30T03:29:05.768Z,0.90
2023-11-30T03:31:32.636Z,0.90
2023-11-30T03:33:59.464Z,0.90
2023-11-30T03:36:26.426Z,0.90
2023-11-30T03:39:05.232Z,1.00
2023-11-30T03:41:35.036Z,0.90
2023-11-30T03:44:02.050Z,0.80
2023-11-30T03:46:29.176Z,0.80
2023-11-30T03:48:56.469Z,0.80
2023-11-30T03:51:35.268Z,0.80
2023-11-30T03:54:02.434Z,0.80
2023-11-30T03:56:32.261Z,0.80
2023-11-30T03:58:59.093Z,0.80
2023-11-30T04:01:25.933Z,0.80
2023-11-30T04:03:53.071Z,0.70
2023-11-30T04:06:24.218Z,0.70
2023-11-30T04:08:53.201Z,0.70
2023-11-30T04:11:20.010Z,0.70
2023-11-30T04:13:48.314Z,0.70
2023-11-30T04:19:05.718Z,0.70
2023-11-30T04:24:18.501Z,0.60
2023-11-30T04:26:45.239Z,0.60
2023-11-30T04:29:12.087Z,0.50
2023-11-30T04:31:39.694Z,0.50
2023-11-30T04:34:06.394Z,0.40
2023-11-30T04:36:33.023Z,0.40
2023-11-30T04:39:05.934Z,0.40
2023-11-30T04:41:42.560Z,0.40
2023-11-30T04:44:11.244Z,0.40
2023-11-30T04:46:38.199Z,0.40
2023-11-30T04:49:05.956Z,0.30
2023-11-30T04:51:32.765Z,0.30
2023-11-30T04:54:05.919Z,0.20
2023-11-30T04:56:47.622Z,0.20
2023-11-30T05:06:20.226Z,0.20
2023-11-30T05:11:30.589Z,0.20
2023-11-30T05:14:00.112Z,0.30
2023-11-30T05:16:26.881Z,0.20
2023-11-30T05:19:02.662Z,0.20
2023-11-30T05:21:29.565Z,0.20
2023-11-30T05:23:58.419Z,0.30
2023-11-30T05:26:25.141Z,0.30
2023-11-30T05:28:51.930Z,0.40
2023-11-30T05:31:18.806Z,0.40
2023-11-30T05:33:59.271Z,0.40
2023-11-30T05:36:32.051Z,0.30
2023-11-30T05:38:58.783Z,0.40
2023-11-30T05:41:26.625Z,0.40
2023-11-30T05:43:53.462Z,0.40
2023-11-30T05:46:20.284Z,0.50
2023-11-30T05:48:47.136Z,0.50
2023-11-30T05:51:14.004Z,0.50
2023-11-30T05:53:48.162Z,0.60
2023-11-30T05:56:15.144Z,0.60
2023-11-30T05:58:42.019Z,0.70
2023-11-30T06:01:08.770Z,0.70
2023-11-30T06:03:35.658Z,0.70
2023-11-30T06:06:02.548Z,0.70
2023-11-30T06:08:31.777Z,0.80
2023-11-30T06:11:02.992Z,0.80
2023-11-30T06:13:31.112Z,0.80
2023-11-30T06:15:57.780Z,0.70
2023-11-30T06:18:24.504Z,0.60
2023-11-30T06:20:54.339Z,0.60
2023-11-30T06:23:28.401Z,0.50
2023-11-30T06:26:02.933Z,0.60
2023-11-30T06:28:29.631Z,0.60
2023-11-30T06:30:56.687Z,0.60
2023-11-30T06:33:23.472Z,0.60
2023-11-30T06:35:50.308Z,0.60
2023-11-30T06:38:17.254Z,0.60
2023-11-30T06:40:46.282Z,0.70
2023-11-30T06:43:12.953Z,0.70
2023-11-30T06:45:39.856Z,0.70
2023-11-30T06:48:08.759Z,0.60
2023-11-30T06:50:35.396Z,0.60
2023-11-30T06:53:02.068Z,0.60
2023-11-30T06:55:33.164Z,0.50
2023-11-30T06:57:59.981Z,0.50
2023-11-30T07:00:26.876Z,0.50
2023-11-30T07:02:54.450Z,0.50
2023-11-30T07:05:21.368Z,0.50
2023-11-30T07:07:48.318Z,0.50
2023-11-30T07:10:15.425Z,0.50
2023-11-30T07:12:42.541Z,0.50
2023-11-30T07:15:09.964Z,0.50
2023-11-30T08:03:04.125Z,0.50
2023-11-30T08:05:43.254Z,0.40
2023-11-30T08:08:24.642Z,0.50
2023-11-30T08:10:52.444Z,0.50
2023-11-30T08:13:19.161Z,0.60
2023-11-30T08:15:58.114Z,0.70
2023-11-30T08:18:24.860Z,0.70
2023-11-30T08:21:06.724Z,0.70
2023-11-30T08:23:52.911Z,0.70
2023-11-30T08:26:19.794Z,0.70
2023-11-30T08:29:05.272Z,0.70
2023-11-30T08:31:32.110Z,0.70
2023-11-30T08:34:16.784Z,0.70
2023-11-30T08:39:47.656Z,0.70
2023-11-30T08:42:12.735Z,0.70
2023-11-30T08:44:39.504Z,0.70
2023-11-30T08:47:18.532Z,0.70
2023-11-30T08:49:45.340Z,0.70
2023-11-30T08:52:22.470Z,0.70
2023-11-30T08:54:49.203Z,0.70
2023-11-30T08:57:37.965Z,0.70
2023-11-30T09:00:12.053Z,0.70
2023-11-30T09:02:50.530Z,0.70
2023-11-30T09:05:58.413Z,0.60
2023-11-30T09:11:13.857Z,0.30
2023-11-30T09:13:40.957Z,0.10
2023-11-30T09:16:08.126Z,0.00
2023-11-30T09:18:45.291Z,0.00
2023-11-30T09:21:13.985Z,-0.10
2023-11-30T09:23:53.168Z,0.00
2023-11-30T09:26:38.708Z,-0.10
2023-11-30T09:29:05.440Z,0.00
2023-11-30T09:31:41.847Z,-0.10
2023-11-30T09:34:08.814Z,-0.10
2023-11-30T09:36:51.066Z,-0.10
2023-11-30T09:41:58.420Z,-0.20
2023-11-30T09:44:25.123Z,-0.10
2023-11-30T09:46:51.857Z,0.10
2023-11-30T09:49:18.661Z,0.00
2023-11-30T09:55:40.417Z,0.00
2023-11-30T09:58:25.565Z,0.00
2023-11-30T10:01:01.635Z,0.00
2023-11-30T10:03:33.324Z,-0.10
2023-11-30T10:06:00.350Z,-0.10
2023-11-30T10:08:42.939Z,-0.10
2023-11-30T10:11:27.559Z,0.00
2023-11-30T10:14:03.644Z,0.20
2023-11-30T10:19:21.645Z,0.30
2023-11-30T10:21:48.626Z,0.20
2023-11-30T10:24:15.516Z,0.20
2023-11-30T10:26:44.258Z,0.20
2023-11-30T10:32:21.608Z,0.40
2023-11-30T10:35:06.081Z,0.50
2023-11-30T10:40:26.914Z,0.40
2023-11-30T10:42:54.645Z,0.40
2023-11-30T10:45:22.653Z,0.30
2023-11-30T10:48:03.110Z,0.20
2023-11-30T10:50:35.411Z,0.40
2023-11-30T10:53:02.219Z,0.50
2023-11-30T10:55:44.112Z,0.50
2023-11-30T10:58:10.895Z,0.50
2023-11-30T11:11:45.698Z,0.30
2023-11-30T11:14:31.563Z,0.30
2023-11-30T11:17:08.284Z,0.50
2023-11-30T11:23:25.208Z,0.30
2023-11-30T11:26:26.040Z,0.20
2023-11-30T11:39:20.755Z,0.30
2023-11-30T11:42:02.828Z,0.40
2023-11-30T11:44:38.480Z,0.60
2023-11-30T11:47:13.670Z,0.60
2023-11-30T11:52:45.725Z,0.60
2023-11-30T11:55:12.699Z,0.60
2023-11-30T11:57:41.352Z,0.80
2023-11-30T12:00:15.169Z,0.70
2023-11-30T12:02:43.126Z,0.60
2023-11-30T12:05:22.675Z,0.50
2023-11-30T12:10:44.685Z,0.40
2023-11-30T12:13:32.814Z,0.40
2023-11-30T12:16:29.093Z,0.60
2023-11-30T12:19:15.095Z,0.90
2023-11-30T12:21:42.958Z,0.90
2023-11-30T12:24:17.085Z,0.90
2023-11-30T12:26:44.125Z,1.00
2023-11-30T12:29:23.123Z,0.90
2023-11-30T12:32:12.383Z,0.90
2023-11-30T12:34:37.494Z,1.00
2023-11-30T12:37:17.920Z,0.80
2023-11-30T12:39:44.742Z,0.80
2023-11-30T12:42:26.788Z,0.90
2023-11-30T12:44:56.794Z,0.80
2023-11-30T12:47:34.711Z,0.80
2023-11-30T12:50:13.503Z,0.90
2023-11-30T12:53:25.645Z,0.80
2023-11-30T12:56:08.047Z,0.80
2023-11-30T12:58:38.597Z,0.90
2023-11-30T13:08:17.531Z,1.30
2023-11-30T13:13:41.969Z,1.00
2023-11-30T13:16:11.886Z,0.80
2023-11-30T13:18:44.331Z,0.80
2023-11-30T13:21:11.302Z,0.90
2023-11-30T13:23:44.171Z,1.10
2023-11-30T13:26:11.111Z,1.10
2023-11-30T13:28:55.294Z,1.20
2023-11-30T13:31:36.448Z,1.20
2023-11-30T13:34:27.754Z,1.30
2023-11-30T13:37:01.073Z,1.40
2023-11-30T13:39:30.899Z,1.40
2023-11-30T13:41:57.612Z,1.20
2023-11-30T13:44:45.728Z,1.00
2023-11-30T13:47:23.852Z,0.90
2023-11-30T13:50:04.503Z,0.80
2023-11-30T13:52:35.440Z,0.70
2023-11-30T13:55:11.055Z,0.80
2023-11-30T13:58:01.236Z,0.80
2023-11-30T14:00:28.161Z,0.70
2023-11-30T14:03:03.948Z,0.60
2023-11-30T14:05:40.166Z,0.60
2023-11-30T14:08:13.948Z,0.70
2023-11-30T14:10:56.018Z,0.80
2023-11-30T14:16:41.483Z,0.70
2023-11-30T14:19:08.513Z,0.60
2023-11-30T14:24:50.691Z,0.70
2023-11-30T14:30:47.416Z,0.70
2023-11-30T14:33:16.702Z,0.80
2023-11-30T14:35:44.032Z,0.90
2023-11-30T14:38:15.490Z,1.00
2023-11-30T14:40:51.530Z,1.00
2023-11-30T14:43:37.278Z,0.90
2023-11-30T14:46:13.506Z,0.70
2023-11-30T14:49:14.457Z,0.70
2023-11-30T14:51:41.250Z,0.80
2023-11-30T14:57:45.012Z,0.90
2023-11-30T15:00:13.821Z,0.90
2023-11-30T15:02:56.222Z,1.00
2023-11-30T15:05:35.273Z,1.10
2023-11-30T15:11:30.788Z,1.10
2023-11-30T15:13:57.558Z,1.10
2023-11-30T15:19:27.395Z,0.80
2023-11-30T15:22:00.126Z,0.80
2023-11-30T15:22:10.185Z,1.10
2023-11-30T15:24:32.610Z,0.80
2023-11-30T15:27:02.290Z,0.70
2023-11-30T15:29:30.312Z,0.70
2023-11-30T15:31:57.925Z,0.70
2023-11-30T15:34:27.658Z,0.70
2023-11-30T15:37:05.032Z,0.70
2023-11-30T15:39:35.909Z,0.60
2023-11-30T15:42:40.452Z,0.60
2023-11-30T15:45:19.515Z,0.50
2023-11-30T15:50:27.149Z,0.40
2023-11-30T15:52:56.074Z,0.40
2023-11-30T15:55:40.746Z,0.40
2023-11-30T15:58:18.526Z,0.30
2023-11-30T16:01:03.583Z,0.30
2023-11-30T16:03:37.269Z,0.30
2023-11-30T16:06:10.465Z,0.30
2023-11-30T16:08:49.609Z,0.30
2023-11-30T16:11:22.737Z,0.30
2023-11-30T16:13:52.563Z,0.40
2023-11-30T16:29:45.429Z,0.40
2023-11-30T16:32:12.251Z,0.50
2023-11-30T16:35:04.171Z,0.50
2023-11-30T16:37:31.185Z,0.50
2023-11-30T16:39:58.351Z,0.50
2023-11-30T16:45:58.464Z,0.60
2023-11-30T16:48:38.241Z,0.60
2023-11-30T17:03:30.574Z,0.50
2023-11-30T17:06:06.585Z,0.50
2023-11-30T17:08:33.429Z,0.50
2023-11-30T17:11:06.053Z,0.50
2023-11-30T17:17:57.638Z,0.50
2023-11-30T17:20:39.829Z,0.50
2023-11-30T17:23:09.547Z,0.60
2023-11-30T17:25:36.481Z,0.60
2023-11-30T17:28:15.827Z,0.50
2023-11-30T17:34:27.209Z,0.40
2023-11-30T17:36:55.933Z,0.40
2023-11-30T17:39:22.685Z,0.40
2023-11-30T17:44:36.217Z,0.30
2023-11-30T17:47:03.041Z,0.30
2023-11-30T17:49:29.906Z,0.30
2023-11-30T17:52:08.045Z,0.30
2023-11-30T17:54:35.114Z,0.30
2023-11-30T17:57:01.905Z,0.30
2023-11-30T17:59:29.008Z,0.30
2023-11-30T18:01:55.773Z,0.30
2023-11-30T18:53:29.255Z,-0.20
2023-11-30T19:20:16.871Z,-0.40
2023-11-30T19:22:44.127Z,-0.40
2023-11-30T19:28:12.236Z,-0.20
2023-11-30T19:39:10.008Z,-0.20
2023-11-30T20:31:00.956Z,-0.30
2023-11-30T20:33:40.287Z,-0.40
2023-11-30T20:36:07.423Z,-0.40
2023-11-30T20:52:16.059Z,-0.40
2023-11-30T20:55:08.206Z,-0.40
2023-11-30T21:09:13.570Z,-0.80
2023-11-30T21:11:40.546Z,-0.90
2023-11-30T21:14:17.336Z,-1.00
2023-11-30T21:16:45.477Z,-0.90
2023-11-30T21:19:33.367Z,-0.80
2023-11-30T21:43:48.083Z,-0.80
2023-11-30T21:57:24.387Z,-0.90
2023-11-30T22:13:22.532Z,-1.10
2023-11-30T22:15:56.928Z,-1.10
2023-11-30T22:18:26.886Z,-1.20
2023-11-30T22:21:01.373Z,-1.30
2023-11-30T22:23:34.175Z,-1.30
2023-11-30T22:26:04.284Z,-1.20
2023-11-30T22:28:31.637Z,-1.20
2023-11-30T22:31:04.605Z,-1.10
2023-11-30T22:33:31.352Z,-1.00
2023-11-30T22:36:21.632Z,-1.20
2023-11-30T22:38:50.712Z,-1.20
2023-11-30T22:41:17.640Z,-1.30
2023-11-30T22:43:51.688Z,-1.30
2023-11-30T22:46:19.288Z,-1.50
2023-11-30T22:48:56.177Z,-1.60
2023-11-30T22:51:23.259Z,-1.60
2023-11-30T22:53:55.997Z,-1.40
2023-11-30T22:56:24.838Z,-1.40
2023-11-30T22:58:51.679Z,-1.40
2023-11-30T23:01:19.293Z,-1.30
2023-11-30T23:03:48.252Z,-1.30
2023-11-30T23:06:23.887Z,-1.20
2023-11-30T23:08:51.614Z,-1.20
2023-11-30T23:11:18.291Z,-1.20
2023-11-30T23:13:47.303Z,-1.20
2023-11-30T23:16:16.523Z,-1.20
2023-11-30T23:18:43.639Z,-1.20
2023-11-30T23:21:13.187Z,-1.20
2023-11-30T23:23:40.101Z,-1.20
2023-11-30T23:26:31.784Z,-1.20
2023-11-30T23:29:04.882Z,-1.20
2023-11-30T23:31:32.327Z,-1.10
2023-11-30T23:34:01.991Z,-1.10
2023-11-30T23:36:30.102Z,-1.10
2023-11-30T23:38:57.341Z,-1.10
2023-11-30T23:41:23.974Z,-1.00
2023-11-30T23:43:50.761Z,-1.00
2023-11-30T23:46:18.252Z,-1.00
2023-11-30T23:48:45.315Z,-1.10
2023-11-30T23:51:12.148Z,-1.20
2023-11-30T23:53:39.053Z,-1.10
2023-11-30T23:56:06.216Z,-1.10
2023-11-30T23:58:33.132Z,-1.10
